Time;durP1;ratioP1;P1;durP2;ratioP2;P2;SDS_P1;SDS_P2;PMS_P1;PMS_P2;Temp;Humidity;BMP_temperature;BMP_pressure;BME280_temperature;BME280_humidity;BME280_pressure;Samples;Min_cycle;Max_cycle;Signal;HPM_P1;HPM_P2
2024/02/03 00:01:53;;;;;;;6.68;3.47;;;8.30;99.90;;;;;;4987461;28;20042;-73
2024/02/03 00:04:24;;;;;;;12.20;4.03;;;8.40;99.90;;;;;;5020017;28;20082;-72
2024/02/03 00:06:52;;;;;;;6.93;3.20;;;8.40;99.90;;;;;;5020337;28;20045;-72
2024/02/03 00:09:20;;;;;;;7.60;3.80;;;8.40;99.90;;;;;;5003841;28;20036;-72
2024/02/03 00:11:55;;;;;;;6.00;2.95;;;8.40;99.90;;;;;;5020061;28;20094;-72
2024/02/03 00:14:27;;;;;;;5.63;3.17;;;8.40;99.90;;;;;;4991552;28;20049;-72
2024/02/03 00:17:05;;;;;;;5.30;2.40;;;8.40;99.90;;;;;;5039827;28;20049;-72
2024/02/03 00:19:40;;;;;;;8.45;2.80;;;8.40;99.90;;;;;;5039965;28;20041;-73
2024/02/03 00:22:11;;;;;;;5.80;2.95;;;8.40;99.90;;;;;;5039370;28;20038;-73
2024/02/03 00:24:39;;;;;;;5.38;2.55;;;8.40;99.90;;;;;;5007458;28;20034;-71
2024/02/03 00:27:05;;;;;;;9.02;3.47;;;8.40;99.90;;;;;;5039665;28;20041;-72
2024/02/03 00:29:32;;;;;;;6.82;3.10;;;8.40;99.90;;;;;;5039647;28;20022;-72
2024/02/03 00:32:00;;;;;;;4.57;2.42;;;8.40;99.90;;;;;;5025096;28;20022;-72
2024/02/03 00:34:30;;;;;;;3.85;2.40;;;8.30;99.90;;;;;;5040080;28;20045;-72
2024/02/03 00:36:57;;;;;;;7.53;2.97;;;8.30;99.90;;;;;;5040752;28;20029;-72
2024/02/03 00:39:23;;;;;;;4.30;2.22;;;8.30;99.90;;;;;;5040644;28;20030;-71
2024/02/03 00:41:51;;;;;;;3.90;2.40;;;8.30;99.90;;;;;;5019729;28;20034;-73
2024/02/03 00:44:18;;;;;;;5.32;2.60;;;8.20;99.90;;;;;;5019706;28;20046;-72
2024/02/03 00:46:48;;;;;;;5.50;2.72;;;8.20;99.90;;;;;;5022893;28;20069;-73
2024/02/03 00:50:15;;;;;;;6.35;2.92;;;8.20;99.90;;;;;;5006790;28;20053;-72
2024/02/03 00:56:24;;;;;;;4.63;2.90;;;8.20;99.90;;;;;;5036065;28;19925;-72
2024/02/03 00:58:51;;;;;;;;;;;8.20;99.90;;;;;;5039290;28;20037;-72
2024/02/03 01:01:21;;;;;;;8.18;3.08;;;8.10;99.90;;;;;;5032903;28;19969;-72
2024/02/03 01:03:50;;;;;;;4.00;2.13;;;8.10;99.90;;;;;;5042277;28;20033;-72
2024/02/03 01:06:20;;;;;;;5.53;2.58;;;8.20;99.90;;;;;;5058877;28;20037;-72
2024/02/03 01:08:48;;;;;;;4.47;2.58;;;8.30;99.90;;;;;;5043038;28;20021;-72
2024/02/03 01:11:21;;;;;;;5.05;2.38;;;8.40;99.90;;;;;;5058970;28;20037;-71
2024/02/03 01:13:56;;;;;;;4.90;2.50;;;8.40;99.90;;;;;;5028280;28;20029;-70
2024/02/03 01:16:26;;;;;;;6.35;2.30;;;8.40;99.90;;;;;;5042306;28;20064;-72
2024/02/03 01:18:53;;;;;;;3.60;2.10;;;8.40;99.90;;;;;;5066588;28;20029;-72
2024/02/03 01:21:23;;;;;;;4.93;2.28;;;8.40;99.90;;;;;;5024793;28;20025;-72
2024/02/03 01:23:56;;;;;;;2.92;2.03;;;8.50;99.90;;;;;;5022554;28;20121;-72
2024/02/03 01:26:25;;;;;;;3.50;2.35;;;8.50;99.90;;;;;;5023205;28;20037;-72
2024/02/03 01:28:54;;;;;;;4.60;2.42;;;8.50;99.90;;;;;;5022782;28;20053;-72
2024/02/03 01:32:19;;;;;;;6.35;2.83;;;8.40;99.90;;;;;;5022258;28;20030;-72
2024/02/03 01:34:48;;;;;;;14.68;2.50;;;8.50;99.90;;;;;;5038800;28;20037;-72
2024/02/03 01:37:15;;;;;;;3.85;2.60;;;8.50;99.90;;;;;;5038493;28;20053;-72
2024/02/03 01:39:42;;;;;;;3.60;1.95;;;8.50;99.90;;;;;;5018837;28;20065;-72
2024/02/03 01:42:13;;;;;;;8.93;4.00;;;8.50;99.90;;;;;;4983399;28;20023;-72
2024/02/03 01:44:42;;;;;;;4.13;1.92;;;8.50;99.90;;;;;;4982524;28;20047;-72
2024/02/03 01:47:20;;;;;;;9.65;2.20;;;8.50;99.90;;;;;;4999248;28;20039;-71
2024/02/03 01:50:04;;;;;;;4.97;2.70;;;8.40;99.90;;;;;;4999265;28;20038;-72
2024/02/03 01:52:35;;;;;;;5.32;2.50;;;8.30;99.90;;;;;;4983212;28;20026;-73
2024/02/03 01:55:19;;;;;;;3.25;2.20;;;8.40;99.90;;;;;;4983537;28;20031;-72
2024/02/03 01:57:48;;;;;;;4.45;2.17;;;8.40;99.90;;;;;;4985114;28;20047;-72
2024/02/03 02:05:25;;;;;;;7.35;2.97;;;8.40;99.90;;;;;;5180568;22;20033;-72
2024/02/03 02:07:57;;;;;;;6.25;3.20;;;8.40;99.90;;;;;;5038682;28;20018;-72
2024/02/03 02:10:30;;;;;;;5.88;2.75;;;8.40;99.90;;;;;;5057380;28;20033;-72
2024/02/03 02:12:57;;;;;;;6.13;2.53;;;8.40;99.90;;;;;;5027756;28;20021;-72
2024/02/03 02:15:30;;;;;;;5.22;3.38;;;8.40;99.90;;;;;;5037991;28;20069;-73
2024/02/03 02:18:00;;;;;;;5.53;2.95;;;8.40;99.90;;;;;;5039168;28;20021;-72
2024/02/03 02:20:33;;;;;;;3.70;1.55;;;8.40;99.90;;;;;;4988283;28;20030;-73
2024/02/03 02:23:00;;;;;;;3.88;2.58;;;8.30;99.90;;;;;;5017519;28;20068;-72
2024/02/03 02:25:38;;;;;;;5.95;2.63;;;8.30;99.90;;;;;;5015228;28;20019;-72
2024/02/03 02:28:07;;;;;;;3.75;2.53;;;8.30;99.90;;;;;;4999099;28;20058;-73
2024/02/03 02:30:36;;;;;;;4.95;2.60;;;8.30;99.90;;;;;;4998983;28;20034;-72
2024/02/03 02:33:04;;;;;;;6.07;2.17;;;8.30;99.90;;;;;;4999617;28;20105;-72
2024/02/03 02:35:32;;;;;;;4.15;2.17;;;8.30;99.90;;;;;;4973940;28;20072;-72
2024/02/03 02:38:04;;;;;;;3.88;1.52;;;8.30;99.90;;;;;;5038375;28;20034;-72
2024/02/03 02:53:36;;;;;;;4.20;2.33;;;8.30;99.90;;;;;;5204860;22;20040;-72
2024/02/03 02:56:04;;;;;;;;;;;8.40;99.90;;;;;;5017690;28;20122;-72
2024/02/03 02:58:32;;;;;;;4.10;2.15;;;8.30;99.90;;;;;;5017475;28;19965;-71
2024/02/03 03:01:05;;;;;;;4.15;2.47;;;8.30;99.90;;;;;;5016572;28;20039;-72
2024/02/03 03:03:37;;;;;;;4.97;2.40;;;8.30;99.90;;;;;;5017370;28;20034;-72
2024/02/03 03:06:07;;;;;;;5.13;2.25;;;8.30;99.90;;;;;;5017592;28;20050;-72
2024/02/03 03:08:35;;;;;;;6.10;2.35;;;8.30;99.90;;;;;;4985495;28;20022;-72
2024/02/03 03:11:02;;;;;;;8.57;2.58;;;8.40;99.90;;;;;;5027094;28;20030;-72
2024/02/03 03:13:32;;;;;;;4.63;2.08;;;8.40;99.90;;;;;;5021443;28;20060;-72
2024/02/03 03:16:00;;;;;;;6.80;2.92;;;8.30;99.90;;;;;;5007359;28;20072;-72
2024/02/03 03:18:39;;;;;;;6.03;2.70;;;8.40;99.90;;;;;;5025008;28;20092;-72
2024/02/03 03:21:07;;;;;;;3.38;2.25;;;8.40;99.90;;;;;;5041263;28;20054;-72
2024/02/03 03:23:35;;;;;;;5.68;2.65;;;8.40;99.90;;;;;;5025075;28;20085;-72
2024/02/03 03:26:01;;;;;;;7.43;2.85;;;8.40;99.90;;;;;;5008322;28;20105;-73
2024/02/03 03:28:38;;;;;;;6.80;2.95;;;8.40;99.90;;;;;;5041633;28;20049;-73
2024/02/03 03:31:06;;;;;;;8.40;3.35;;;8.40;99.90;;;;;;5041045;28;20038;-72
2024/02/03 03:33:33;;;;;;;6.03;2.53;;;8.40;99.90;;;;;;5025167;28;20089;-73
2024/02/03 03:36:00;;;;;;;5.65;3.03;;;8.40;99.90;;;;;;5025405;28;20037;-73
2024/02/03 03:38:27;;;;;;;8.70;3.67;;;8.40;99.90;;;;;;5042101;28;20022;-73
2024/02/03 03:40:55;;;;;;;8.65;3.40;;;8.40;99.90;;;;;;5025265;28;20046;-73
2024/02/03 03:43:32;;;;;;;5.60;3.13;;;8.30;99.90;;;;;;4993912;28;20028;-72
2024/02/03 03:46:00;;;;;;;8.52;3.75;;;8.40;99.90;;;;;;5024914;28;20026;-72
2024/02/03 03:48:30;;;;;;;4.25;2.75;;;8.30;99.90;;;;;;4985011;28;20054;-72
2024/02/03 03:51:13;;;;;;;10.82;2.85;;;8.40;99.90;;;;;;4974726;28;20085;-72
2024/02/03 03:53:45;;;;;;;6.43;3.38;;;8.40;99.90;;;;;;5001225;28;20098;-73
2024/02/03 03:56:19;;;;;;;5.57;2.97;;;8.40;99.90;;;;;;5012622;28;20061;-72
2024/02/03 03:58:48;;;;;;;7.90;3.92;;;8.40;99.90;;;;;;5004638;28;20053;-72
2024/02/03 04:01:18;;;;;;;7.25;3.38;;;8.40;99.90;;;;;;5020504;28;20030;-72
2024/02/03 04:03:46;;;;;;;6.28;3.20;;;8.40;99.90;;;;;;5003986;28;20123;-72
2024/02/03 04:06:19;;;;;;;8.25;3.42;;;8.40;99.90;;;;;;5020550;28;20062;-72
2024/02/03 04:08:51;;;;;;;9.57;4.75;;;8.50;99.90;;;;;;5020495;28;20030;-72
2024/02/03 04:11:23;;;;;;;8.57;4.05;;;8.50;99.90;;;;;;5020596;28;20026;-72
2024/02/03 04:13:54;;;;;;;8.68;4.50;;;8.50;99.90;;;;;;5003978;28;20052;-72
2024/02/03 04:16:21;;;;;;;12.18;4.13;;;8.50;99.90;;;;;;4976573;28;20046;-72
2024/02/03 04:18:54;;;;;;;8.02;4.18;;;8.50;99.90;;;;;;4989110;28;20045;-72
2024/02/03 04:21:29;;;;;;;11.20;3.65;;;8.50;99.90;;;;;;5020000;28;20053;-72
2024/02/03 04:23:56;;;;;;;7.07;4.38;;;8.50;99.90;;;;;;5004150;28;20094;-72
2024/02/03 04:26:23;;;;;;;9.88;4.35;;;8.40;99.90;;;;;;5048844;28;20026;-72
2024/02/03 04:28:53;;;;;;;6.50;3.67;;;8.40;99.90;;;;;;5040793;28;20106;-72
2024/02/03 04:31:23;;;;;;;9.05;4.20;;;8.40;99.90;;;;;;5052663;28;20032;-73
2024/02/03 04:33:50;;;;;;;9.20;4.35;;;8.40;99.90;;;;;;5060458;28;20088;-72
2024/02/03 04:36:21;;;;;;;7.72;3.80;;;8.50;99.90;;;;;;5049654;28;20040;-72
2024/02/03 04:59:30;;;;;;;6.68;3.78;;;8.30;99.90;;;;;;5570642;23;20136;-72
2024/02/03 05:01:58;;;;;;;7.28;3.38;;;8.20;99.90;;;;;;5080758;28;20112;-72
2024/02/03 05:04:25;;;;;;;5.70;2.70;;;8.20;99.90;;;;;;5049188;28;20135;-72
2024/02/03 05:07:03;;;;;;;11.02;4.18;;;8.20;99.90;;;;;;5051294;28;20037;-72
2024/02/03 05:09:42;;;;;;;9.85;3.83;;;8.20;99.90;;;;;;5082392;28;20033;-71
2024/02/03 05:12:15;;;;;;;8.80;3.45;;;8.20;99.90;;;;;;5082117;28;20028;-72
2024/02/03 05:14:42;;;;;;;5.97;2.95;;;8.20;99.90;;;;;;5065177;28;20068;-71
2024/02/03 05:17:09;;;;;;;4.55;2.95;;;8.20;99.90;;;;;;5098771;28;20032;-72
2024/02/03 05:19:37;;;;;;;7.07;3.33;;;8.20;99.90;;;;;;5098663;28;20033;-72
2024/02/03 05:22:07;;;;;;;5.47;3.08;;;8.20;99.90;;;;;;5041837;28;20038;-72
2024/02/03 05:24:36;;;;;;;6.35;3.60;;;8.20;99.90;;;;;;5041935;28;20036;-71
2024/02/03 05:27:05;;;;;;;5.05;1.95;;;8.20;99.90;;;;;;5025704;28;20065;-72
2024/02/03 05:29:39;;;;;;;5.95;2.58;;;8.20;99.90;;;;;;5058458;28;20037;-71
2024/02/03 05:32:06;;;;;;;6.47;2.75;;;8.20;99.90;;;;;;5042722;28;20080;-72
2024/02/03 05:34:33;;;;;;;4.72;2.75;;;8.20;99.90;;;;;;5058274;28;20029;-72
2024/02/03 05:37:00;;;;;;;7.63;3.00;;;8.20;99.90;;;;;;5057997;28;20026;-72
2024/02/03 05:39:32;;;;;;;5.95;2.95;;;8.20;99.90;;;;;;5057654;28;20026;-72
2024/02/03 05:41:58;;;;;;;4.68;2.33;;;8.10;99.90;;;;;;5040392;28;20045;-71
2024/02/03 05:44:26;;;;;;;6.38;2.67;;;8.10;99.90;;;;;;5038071;28;20049;-72
2024/02/03 05:46:53;;;;;;;4.85;2.30;;;8.10;99.90;;;;;;5020236;28;20072;-71
2024/02/03 05:49:26;;;;;;;5.35;2.00;;;8.10;99.90;;;;;;5041841;28;20029;-72
2024/02/03 05:51:54;;;;;;;3.88;2.20;;;8.10;99.90;;;;;;5043232;28;20527;-72
2024/02/03 05:54:21;;;;;;;5.40;2.25;;;8.00;99.90;;;;;;5061832;28;20021;-72
2024/02/03 05:57:04;;;;;;;4.80;2.30;;;8.10;99.90;;;;;;5058264;28;20041;-72
2024/02/03 05:59:31;;;;;;;6.63;2.28;;;8.10;99.90;;;;;;5062590;28;20053;-73
2024/02/03 06:01:59;;;;;;;3.75;2.08;;;8.10;99.90;;;;;;5078860;28;20029;-73
2024/02/03 06:04:27;;;;;;;4.35;1.70;;;8.00;99.90;;;;;;5061548;28;20092;-72
2024/02/03 06:06:57;;;;;;;4.88;1.23;;;8.00;99.90;;;;;;5077412;28;20092;-73
2024/02/03 06:09:25;;;;;;;4.07;2.00;;;8.10;99.90;;;;;;5076105;28;20025;-73
2024/02/03 06:11:58;;;;;;;2.80;1.77;;;8.10;99.90;;;;;;5068216;28;20041;-73
2024/02/03 06:14:25;;;;;;;3.45;1.73;;;8.00;99.90;;;;;;5073259;28;20032;-71
2024/02/03 06:16:52;;;;;;;2.28;1.40;;;8.00;99.90;;;;;;5046076;28;20030;-74
2024/02/03 06:19:18;;;;;;;2.85;1.63;;;8.00;99.90;;;;;;5046207;28;20096;-69
2024/02/03 06:21:44;;;;;;;4.82;2.53;;;8.00;99.90;;;;;;5055770;28;20509;-70
2024/02/03 06:24:10;;;;;;;3.08;2.15;;;8.00;99.90;;;;;;5060230;28;20083;-70
2024/02/03 06:26:36;;;;;;;2.90;1.17;;;8.00;99.90;;;;;;5053547;28;20037;-70
2024/02/03 06:29:03;;;;;;;2.33;1.30;;;8.00;99.90;;;;;;5056516;28;20107;-69
2024/02/03 06:31:29;;;;;;;1.92;1.15;;;8.10;99.90;;;;;;5057289;28;20033;-69
2024/02/03 06:33:55;;;;;;;1.80;1.25;;;8.00;99.90;;;;;;5060179;28;20029;-69
2024/02/03 06:36:20;;;;;;;3.97;1.70;;;8.00;99.90;;;;;;5061596;28;20029;-70
2024/02/03 06:38:46;;;;;;;4.18;1.30;;;8.00;99.90;;;;;;5061018;28;20040;-70
2024/02/03 06:41:16;;;;;;;1.55;0.95;;;8.00;99.90;;;;;;5056285;28;20025;-70
2024/02/03 06:43:42;;;;;;;3.95;1.05;;;8.00;99.90;;;;;;5053459;28;20111;-69
2024/02/03 06:46:08;;;;;;;3.03;1.77;;;7.90;99.90;;;;;;5077469;28;20028;-70
2024/02/03 06:48:34;;;;;;;10.85;1.60;;;7.90;99.90;;;;;;5053200;28;20033;-69
2024/02/03 06:51:00;;;;;;;1.50;0.73;;;7.90;99.90;;;;;;5051183;28;20029;-78
2024/02/03 06:53:26;;;;;;;1.15;0.80;;;7.90;99.90;;;;;;5048731;28;20362;-67
2024/02/03 06:55:52;;;;;;;3.45;0.70;;;7.90;99.90;;;;;;5050421;28;20041;-68
2024/02/03 06:58:17;;;;;;;1.75;0.80;;;7.90;99.90;;;;;;5050754;28;20109;-69
2024/02/03 07:00:43;;;;;;;1.60;0.75;;;7.90;99.90;;;;;;5042131;28;20025;-68
2024/02/03 07:03:10;;;;;;;1.25;0.82;;;8.00;99.90;;;;;;5045614;28;20037;-67
2024/02/03 07:05:35;;;;;;;1.95;0.93;;;8.00;99.90;;;;;;5047064;28;20567;-68
2024/02/03 07:08:02;;;;;;;2.45;1.05;;;7.90;99.90;;;;;;5046920;28;20037;-69
2024/02/03 07:10:28;;;;;;;3.28;1.10;;;7.90;99.90;;;;;;5049128;28;20245;-69
2024/02/03 07:12:54;;;;;;;2.08;1.17;;;7.90;99.90;;;;;;5049397;28;20567;-69
2024/02/03 07:15:20;;;;;;;3.15;1.48;;;8.00;99.90;;;;;;5050618;28;20064;-69
2024/02/03 07:17:46;;;;;;;1.65;0.75;;;7.90;99.90;;;;;;5050796;28;20043;-68
2024/02/03 07:20:12;;;;;;;5.70;0.90;;;7.90;99.90;;;;;;5049409;28;20033;-69
2024/02/03 07:22:38;;;;;;;0.98;0.68;;;7.90;99.90;;;;;;5049409;28;20630;-70
2024/02/03 07:25:04;;;;;;;2.13;1.50;;;7.90;99.90;;;;;;5050613;28;20500;-68
2024/02/03 07:27:30;;;;;;;2.05;1.00;;;7.90;99.90;;;;;;5049898;28;20534;-67
2024/02/03 07:29:56;;;;;;;1.90;1.00;;;7.90;99.90;;;;;;5065764;28;20021;-67
2024/02/03 07:32:22;;;;;;;1.05;0.55;;;7.90;99.90;;;;;;5047935;28;20037;-67
2024/02/03 07:34:47;;;;;;;4.25;0.70;;;7.80;99.90;;;;;;5050091;28;20032;-67
2024/02/03 07:37:13;;;;;;;0.80;0.68;;;7.80;99.90;;;;;;5049905;28;20374;-67
2024/02/03 07:39:39;;;;;;;5.13;1.63;;;7.80;99.90;;;;;;5050529;28;20029;-67
2024/02/03 07:42:05;;;;;;;1.20;0.70;;;7.90;99.90;;;;;;5049770;28;20037;-67
2024/02/03 07:44:34;;;;;;;0.55;0.55;;;7.90;99.90;;;;;;5048250;28;20083;-67
2024/02/03 07:47:00;;;;;;;2.45;0.90;;;8.00;99.90;;;;;;5050274;28;20035;-67
2024/02/03 07:49:25;;;;;;;0.60;0.60;;;8.00;99.90;;;;;;5050479;28;20102;-67
2024/02/03 07:51:51;;;;;;;1.02;0.70;;;8.00;99.90;;;;;;5051003;28;20061;-67
2024/02/03 07:54:17;;;;;;;0.55;0.35;;;8.00;99.90;;;;;;5049443;28;20037;-67
2024/02/03 07:56:43;;;;;;;0.98;0.75;;;7.90;99.90;;;;;;5050016;28;20039;-67
2024/02/03 07:59:11;;;;;;;0.77;0.60;;;8.00;99.90;;;;;;5065583;28;20071;-67
2024/02/03 08:01:37;;;;;;;1.48;0.60;;;8.00;99.90;;;;;;5051714;28;20082;-67
2024/02/03 08:04:03;;;;;;;1.05;0.73;;;8.00;99.90;;;;;;5068170;28;20396;-67
2024/02/03 08:06:28;;;;;;;1.92;0.82;;;8.00;99.90;;;;;;5052942;28;20135;-67
2024/02/03 08:08:54;;;;;;;1.73;0.98;;;8.10;99.90;;;;;;5053428;28;20021;-67
2024/02/03 08:11:20;;;;;;;3.20;1.33;;;8.10;99.90;;;;;;5053050;28;20496;-66
2024/02/03 08:16:23;;;;;;;1.23;0.77;;;8.10;99.90;;;;;;5031961;28;20061;-65
2024/02/03 08:18:49;;;;;;;0.93;0.65;;;8.10;99.90;;;;;;5033775;28;20084;-66
2024/02/03 08:21:15;;;;;;;1.27;0.75;;;8.10;99.90;;;;;;5032514;28;20033;-66
2024/02/03 08:23:43;;;;;;;1.30;0.70;;;8.10;99.90;;;;;;5032992;28;20111;-66
2024/02/03 08:26:11;;;;;;;2.53;0.70;;;8.20;99.90;;;;;;5032228;28;20033;-65
2024/02/03 08:28:37;;;;;;;0.65;0.40;;;8.20;99.90;;;;;;5033628;28;20022;-66
2024/02/03 08:31:03;;;;;;;1.55;0.75;;;8.20;99.90;;;;;;5033555;28;20501;-66
2024/02/03 08:33:31;;;;;;;0.75;0.50;;;8.20;99.90;;;;;;5030090;28;20038;-66
2024/02/03 08:35:57;;;;;;;0.95;0.40;;;8.20;99.90;;;;;;5028704;28;20060;-66
2024/02/03 08:38:25;;;;;;;0.73;0.52;;;8.20;99.90;;;;;;5033508;28;20084;-66
2024/02/03 08:40:51;;;;;;;1.73;1.15;;;8.20;99.90;;;;;;5031414;28;20524;-66
2024/02/03 08:43:17;;;;;;;0.52;0.40;;;8.20;99.90;;;;;;5032703;28;20030;-66
2024/02/03 08:45:43;;;;;;;0.63;0.40;;;8.20;99.90;;;;;;5032161;28;20037;-66
2024/02/03 08:48:08;;;;;;;0.65;0.28;;;8.20;99.90;;;;;;5028686;28;20029;-66
2024/02/03 08:50:34;;;;;;;0.93;0.52;;;8.20;99.90;;;;;;5032748;28;20478;-66
2024/02/03 08:53:01;;;;;;;1.25;0.63;;;8.20;99.90;;;;;;5038954;28;20036;-66
2024/02/03 08:55:28;;;;;;;0.80;0.60;;;8.20;99.90;;;;;;5025287;28;20099;-66
2024/02/03 08:57:53;;;;;;;0.47;0.25;;;8.10;99.90;;;;;;5031810;28;20371;-66
2024/02/03 09:00:19;;;;;;;0.47;0.40;;;8.10;99.90;;;;;;5031850;28;20079;-66
2024/02/03 09:02:45;;;;;;;1.08;0.82;;;8.10;99.90;;;;;;5030651;28;20038;-66
2024/02/03 09:05:11;;;;;;;0.45;0.40;;;8.10;99.90;;;;;;5030981;28;20079;-65
2024/02/03 09:07:37;;;;;;;1.08;0.70;;;8.10;99.90;;;;;;5032816;28;20017;-66
2024/02/03 09:10:03;;;;;;;0.55;0.40;;;8.20;99.90;;;;;;5032041;28;20082;-66
2024/02/03 09:12:29;;;;;;;1.10;0.43;;;8.30;99.90;;;;;;5031867;28;20454;-66
2024/02/03 09:14:55;;;;;;;0.68;0.60;;;8.30;99.90;;;;;;5046147;28;20040;-66
2024/02/03 09:17:21;;;;;;;0.45;0.40;;;8.30;99.90;;;;;;5032620;28;20038;-66
2024/02/03 09:19:47;;;;;;;0.80;0.52;;;8.40;99.90;;;;;;5045274;28;21082;-66
2024/02/03 09:22:14;;;;;;;4.95;0.20;;;8.40;99.90;;;;;;5044610;28;20029;-66
2024/02/03 09:24:41;;;;;;;1.75;0.57;;;8.40;99.90;;;;;;5029491;28;20026;-66
2024/02/03 09:27:07;;;;;;;1.08;0.60;;;8.30;99.90;;;;;;5031129;28;20029;-66
2024/02/03 09:29:33;;;;;;;3.55;0.90;;;8.40;99.90;;;;;;5034849;28;20095;-66
2024/02/03 09:32:00;;;;;;;0.73;0.65;;;8.30;99.90;;;;;;5020637;28;20141;-67
2024/02/03 09:34:26;;;;;;;1.52;0.60;;;8.30;99.90;;;;;;5045674;28;20101;-66
2024/02/03 09:36:52;;;;;;;1.88;0.52;;;8.40;99.90;;;;;;5031826;28;20120;-66
2024/02/03 09:39:18;;;;;;;1.52;0.47;;;8.40;99.90;;;;;;5032655;28;20084;-66
2024/02/03 09:41:44;;;;;;;5.15;0.60;;;8.50;99.90;;;;;;5046884;28;20037;-67
2024/02/03 09:44:10;;;;;;;1.40;0.93;;;8.40;99.90;;;;;;5029863;28;20037;-67
2024/02/03 09:46:36;;;;;;;0.55;0.35;;;8.50;99.90;;;;;;5046622;28;20374;-67
2024/02/03 09:49:06;;;;;;;0.80;0.45;;;8.40;99.90;;;;;;5032438;28;20040;-67
2024/02/03 09:51:34;;;;;;;1.15;0.47;;;8.40;99.90;;;;;;5030457;28;20033;-67
2024/02/03 09:54:00;;;;;;;8.57;0.88;;;8.50;99.90;;;;;;5031038;28;20691;-68
2024/02/03 09:56:26;;;;;;;1.13;0.60;;;8.50;99.90;;;;;;5030514;28;20029;-71
2024/02/03 09:58:52;;;;;;;1.17;0.43;;;8.60;99.90;;;;;;5028192;28;20030;-69
2024/02/03 10:01:18;;;;;;;0.73;0.40;;;8.60;99.90;;;;;;5033781;28;20053;-68
2024/02/03 10:03:46;;;;;;;0.25;0.20;;;8.60;99.90;;;;;;5031113;28;20029;-67
2024/02/03 10:06:13;;;;;;;1.02;0.70;;;8.70;99.90;;;;;;5025768;28;20064;-68
2024/02/03 10:08:49;;;;;;;1.00;0.40;;;8.70;99.90;;;;;;5023857;28;20022;-68
2024/02/03 10:11:15;;;;;;;0.52;0.40;;;8.70;99.90;;;;;;5045250;28;20071;-67
2024/02/03 10:13:40;;;;;;;3.42;0.52;;;8.70;99.90;;;;;;5037316;28;20036;-68
2024/02/03 10:16:07;;;;;;;0.40;0.40;;;8.80;99.90;;;;;;5046481;28;20033;-67
2024/02/03 10:18:34;;;;;;;0.80;0.40;;;8.80;99.90;;;;;;5030423;28;20026;-68
2024/02/03 10:21:00;;;;;;;0.95;0.57;;;8.70;99.90;;;;;;5029036;28;20037;-67
2024/02/03 10:23:27;;;;;;;0.68;0.20;;;8.80;99.90;;;;;;5029203;28;20389;-67
2024/02/03 10:26:00;;;;;;;0.80;0.40;;;8.90;99.90;;;;;;5029448;28;20505;-68
2024/02/03 10:28:26;;;;;;;4.85;0.50;;;8.80;99.90;;;;;;5029835;28;20029;-67
2024/02/03 10:30:55;;;;;;;1.33;0.63;;;8.90;99.90;;;;;;5033160;28;20083;-68
2024/02/03 10:33:21;;;;;;;0.45;0.30;;;8.80;99.90;;;;;;5037281;28;20021;-68
2024/02/03 10:35:47;;;;;;;0.43;0.40;;;8.80;99.90;;;;;;5026269;28;20602;-68
2024/02/03 10:38:14;;;;;;;0.77;0.55;;;8.90;99.90;;;;;;5028584;28;20108;-68
2024/02/03 10:40:40;;;;;;;0.47;0.30;;;8.70;99.90;;;;;;5029126;28;20120;-68
2024/02/03 10:43:22;;;;;;;0.17;0.17;;;8.70;99.90;;;;;;5028951;28;20030;-68
2024/02/03 10:45:55;;;;;;;1.40;0.85;;;8.70;99.90;;;;;;5051008;28;20040;-69
2024/02/03 10:48:25;;;;;;;1.48;0.40;;;8.80;99.90;;;;;;5031965;28;20022;-68
2024/02/03 10:50:57;;;;;;;0.47;0.37;;;8.80;99.90;;;;;;5045696;28;20460;-68
2024/02/03 10:53:37;;;;;;;0.85;0.43;;;8.80;99.90;;;;;;5028928;28;20304;-68
2024/02/03 10:56:09;;;;;;;0.90;0.30;;;8.80;99.90;;;;;;5038230;28;20041;-69
2024/02/03 10:58:34;;;;;;;;;;;8.90;99.90;;;;;;5031562;28;20025;-68
2024/02/03 11:01:20;;;;;;;1.30;0.40;;;9.00;99.90;;;;;;5028838;28;20277;-68
2024/02/03 11:03:51;;;;;;;0.47;0.30;;;8.80;99.90;;;;;;5029894;28;20033;-68
2024/02/03 11:06:30;;;;;;;0.85;0.30;;;8.90;99.90;;;;;;5028890;28;20037;-68
2024/02/03 11:09:18;;;;;;;0.17;0.10;;;8.80;99.90;;;;;;5030754;28;20030;-68
2024/02/03 11:11:52;;;;;;;0.35;0.20;;;9.00;99.90;;;;;;5043316;28;20037;-68
2024/02/03 11:14:27;;;;;;;1.85;0.28;;;9.00;99.90;;;;;;5028536;28;20045;-68
2024/02/03 11:17:04;;;;;;;2.22;0.35;;;9.00;99.90;;;;;;5028987;28;20025;-68
2024/02/03 11:19:36;;;;;;;0.10;0.10;;;9.00;99.90;;;;;;5030153;28;20025;-68
2024/02/03 11:22:03;;;;;;;0.63;0.38;;;9.00;99.90;;;;;;5026112;28;20026;-68
2024/02/03 11:24:30;;;;;;;0.80;0.30;;;9.00;99.90;;;;;;5027835;28;20029;-68
2024/02/03 11:26:58;;;;;;;0.43;0.40;;;9.10;99.90;;;;;;5045444;28;20025;-68
2024/02/03 11:29:24;;;;;;;1.75;0.50;;;9.20;99.90;;;;;;5032028;28;20029;-68
2024/02/03 11:32:03;;;;;;;0.60;0.38;;;9.20;99.90;;;;;;5028612;28;20034;-68
2024/02/03 11:34:32;;;;;;;0.47;0.20;;;9.20;99.90;;;;;;5029821;28;20037;-68
2024/02/03 11:36:59;;;;;;;1.33;0.50;;;9.30;99.90;;;;;;5032982;28;20041;-68
2024/02/03 11:39:31;;;;;;;1.00;0.70;;;9.20;99.90;;;;;;5048249;28;20048;-68
2024/02/03 11:42:05;;;;;;;0.90;0.20;;;9.20;99.90;;;;;;5029293;28;20386;-68
2024/02/03 11:44:56;;;;;;;8.40;0.98;;;9.20;99.90;;;;;;5031753;28;20029;-67
2024/02/03 11:47:22;;;;;;;;;;;9.20;99.90;;;;;;5052174;28;20025;-67
2024/02/03 11:49:50;;;;;;;0.77;0.50;;;9.30;99.90;;;;;;5039932;28;19927;-67
2024/02/03 11:52:16;;;;;;;0.45;0.40;;;9.40;99.90;;;;;;5033615;28;20036;-67
2024/02/03 11:54:42;;;;;;;1.42;0.30;;;9.30;99.90;;;;;;5032681;28;20029;-67
2024/02/03 11:57:09;;;;;;;1.17;0.60;;;9.40;99.90;;;;;;5034084;28;20483;-67
2024/02/03 11:59:35;;;;;;;0.25;0.20;;;9.40;99.90;;;;;;5051034;28;20056;-67
2024/02/03 12:02:02;;;;;;;2.30;1.15;;;9.40;99.90;;;;;;5033234;28;20083;-67
2024/02/03 12:04:29;;;;;;;2.15;0.70;;;9.50;99.90;;;;;;5032086;28;20079;-67
2024/02/03 12:06:56;;;;;;;0.93;0.70;;;9.50;99.90;;;;;;5032039;28;20129;-68
2024/02/03 12:09:23;;;;;;;1.52;0.63;;;9.60;99.90;;;;;;5033804;28;20478;-67
2024/02/03 12:11:51;;;;;;;1.17;0.57;;;9.60;99.90;;;;;;5031570;28;20045;-68
2024/02/03 12:14:21;;;;;;;3.97;1.42;;;9.70;99.90;;;;;;5031502;28;20131;-70
2024/02/03 12:16:49;;;;;;;1.55;0.60;;;9.70;99.90;;;;;;5048061;28;20508;-70
2024/02/03 12:19:15;;;;;;;0.82;0.55;;;9.70;99.90;;;;;;5032434;28;20033;-70
2024/02/03 12:21:43;;;;;;;0.80;0.60;;;9.70;99.90;;;;;;5028389;28;20037;-70
2024/02/03 12:24:10;;;;;;;1.48;0.40;;;9.80;99.90;;;;;;5027821;28;20138;-70
2024/02/03 12:26:40;;;;;;;0.60;0.60;;;9.80;99.90;;;;;;5032381;28;20031;-70
2024/02/03 12:29:09;;;;;;;1.17;0.52;;;9.70;99.90;;;;;;5034513;28;20021;-69
2024/02/03 12:31:35;;;;;;;1.63;0.57;;;9.50;99.90;;;;;;5030617;28;20036;-69
2024/02/03 12:34:01;;;;;;;1.10;0.60;;;9.40;99.90;;;;;;5031471;28;20025;-69
2024/02/03 12:36:28;;;;;;;0.52;0.32;;;9.40;99.90;;;;;;5048283;28;20084;-69
2024/02/03 12:38:54;;;;;;;0.75;0.40;;;9.40;99.90;;;;;;5033581;28;20108;-69
2024/02/03 12:41:20;;;;;;;1.13;0.52;;;9.40;99.90;;;;;;5033090;28;20120;-69
2024/02/03 12:43:46;;;;;;;0.95;0.60;;;9.30;99.90;;;;;;5047611;28;20037;-71
2024/02/03 12:46:14;;;;;;;3.83;0.63;;;9.40;99.90;;;;;;5032577;28;20105;-71
2024/02/03 12:48:40;;;;;;;2.03;0.98;;;9.30;99.90;;;;;;5039604;28;20079;-71
2024/02/03 12:51:05;;;;;;;0.90;0.40;;;9.30;99.90;;;;;;5031447;28;20490;-71
2024/02/03 12:53:31;;;;;;;1.73;0.55;;;9.30;99.90;;;;;;5032297;28;20029;-69
2024/02/03 12:55:57;;;;;;;1.88;0.63;;;9.40;99.90;;;;;;5032293;28;20120;-68
2024/02/03 12:58:24;;;;;;;1.40;0.60;;;9.40;99.90;;;;;;5031257;28;20404;-68
2024/02/03 13:00:50;;;;;;;0.75;0.63;;;9.40;99.90;;;;;;5047223;28;20474;-67
2024/02/03 13:03:16;;;;;;;0.90;0.68;;;9.30;99.90;;;;;;5030954;28;20552;-68
2024/02/03 13:05:46;;;;;;;1.13;0.90;;;9.40;99.90;;;;;;5031748;28;20033;-68
2024/02/03 13:08:13;;;;;;;1.67;0.90;;;9.40;99.90;;;;;;5031772;28;20044;-67
2024/02/03 13:10:38;;;;;;;2.05;0.60;;;9.40;99.90;;;;;;5028341;28;20033;-68
2024/02/03 13:13:04;;;;;;;8.82;0.90;;;9.50;99.90;;;;;;5043029;28;20036;-68
2024/02/03 13:15:30;;;;;;;1.13;0.80;;;9.50;99.90;;;;;;5027990;28;20033;-67
2024/02/03 13:17:56;;;;;;;0.70;0.60;;;9.60;99.90;;;;;;5004844;28;20041;-67
2024/02/03 13:20:22;;;;;;;0.20;0.20;;;9.70;99.90;;;;;;5043316;28;20086;-67
2024/02/03 13:22:48;;;;;;;1.75;0.77;;;9.70;99.90;;;;;;5030707;28;20124;-67
2024/02/03 13:25:14;;;;;;;3.90;1.80;;;9.70;99.90;;;;;;5031906;28;20036;-67
2024/02/03 13:27:40;;;;;;;0.77;0.28;;;9.70;99.90;;;;;;5030660;28;20045;-70
2024/02/03 13:30:07;;;;;;;1.45;0.38;;;9.80;99.90;;;;;;5030436;28;20504;-70
2024/02/03 13:32:32;;;;;;;1.17;0.70;;;9.70;99.90;;;;;;5031193;28;20060;-69
2024/02/03 13:34:58;;;;;;;1.55;0.50;;;9.70;99.90;;;;;;5047287;28;20138;-70
2024/02/03 13:37:24;;;;;;;2.78;0.63;;;9.70;99.90;;;;;;5031094;28;20098;-70
2024/02/03 13:39:50;;;;;;;0.82;0.50;;;9.80;99.90;;;;;;5047666;28;20037;-70
2024/02/03 13:42:16;;;;;;;1.15;0.45;;;9.80;99.90;;;;;;5029302;28;20025;-70
2024/02/03 13:44:43;;;;;;;0.93;0.60;;;9.90;99.90;;;;;;5029684;28;20076;-70
2024/02/03 13:47:11;;;;;;;1.25;0.75;;;9.80;99.90;;;;;;5030475;28;20162;-70
2024/02/03 13:49:37;;;;;;;7.22;0.43;;;9.70;99.90;;;;;;5047341;28;20087;-70
2024/02/03 13:52:03;;;;;;;0.70;0.50;;;9.80;99.90;;;;;;5031315;28;20483;-70